sensor_id;sensor_type;location;lat;lon;timestamp;temperature;humidity
52943;DHT22;38809;53.300;6.614;2023-04-24T00:01:43;10.80;99.90
52943;DHT22;38809;53.300;6.614;2023-04-24T00:04:09;11.00;99.90
52943;DHT22;38809;53.300;6.614;2023-04-24T00:06:37;11.00;99.90
52943;DHT22;38809;53.300;6.614;2023-04-24T00:09:05;11.00;99.90
52943;DHT22;38809;53.300;6.614;2023-04-24T00:11:31;11.10;99.90
52943;DHT22;38809;53.300;6.614;2023-04-24T00:13:57;11.00;99.90
52943;DHT22;38809;53.300;6.614;2023-04-24T00:16:23;11.10;99.90
52943;DHT22;38809;53.300;6.614;2023-04-24T00:18:48;11.10;99.90
52943;DHT22;38809;53.300;6.614;2023-04-24T00:21:15;11.00;99.90
52943;DHT22;38809;53.300;6.614;2023-04-24T00:23:43;11.20;99.90
52943;DHT22;38809;53.300;6.614;2023-04-24T00:26:09;11.00;99.90
52943;DHT22;38809;53.300;6.614;2023-04-24T00:28:35;11.00;99.90
52943;DHT22;38809;53.300;6.614;2023-04-24T00:31:01;11.00;99.90
52943;DHT22;38809;53.300;6.614;2023-04-24T00:33:26;11.00;99.90
52943;DHT22;38809;53.300;6.614;2023-04-24T00:35:52;11.10;99.90
52943;DHT22;38809;53.300;6.614;2023-04-24T00:38:18;11.30;99.90
52943;DHT22;38809;53.300;6.614;2023-04-24T00:40:44;11.20;99.90
52943;DHT22;38809;53.300;6.614;2023-04-24T00:43:10;11.10;99.90
52943;DHT22;38809;53.300;6.614;2023-04-24T00:45:36;11.30;99.90
52943;DHT22;38809;53.300;6.614;2023-04-24T00:48:02;11.20;99.90
52943;DHT22;38809;53.300;6.614;2023-04-24T00:50:28;11.00;99.90
52943;DHT22;38809;53.300;6.614;2023-04-24T00:52:54;11.00;99.90
52943;DHT22;38809;53.300;6.614;2023-04-24T00:55:20;11.00;99.90
52943;DHT22;38809;53.300;6.614;2023-04-24T00:57:47;11.20;99.90
52943;DHT22;38809;53.300;6.614;2023-04-24T01:00:14;11.10;99.90
52943;DHT22;38809;53.300;6.614;2023-04-24T01:02:41;11.00;99.90
52943;DHT22;38809;53.300;6.614;2023-04-24T01:05:14;11.10;99.90
52943;DHT22;38809;53.300;6.614;2023-04-24T01:07:44;11.00;99.90
52943;DHT22;38809;53.300;6.614;2023-04-24T01:10:13;11.00;99.90
52943;DHT22;38809;53.300;6.614;2023-04-24T01:12:38;11.00;99.90
52943;DHT22;38809;53.300;6.614;2023-04-24T01:15:05;11.00;99.90
52943;DHT22;38809;53.300;6.614;2023-04-24T01:17:32;10.90;99.90
52943;DHT22;38809;53.300;6.614;2023-04-24T01:19:58;10.90;99.90
52943;DHT22;38809;53.300;6.614;2023-04-24T01:22:25;10.90;99.90
52943;DHT22;38809;53.300;6.614;2023-04-24T01:24:52;10.90;99.90
52943;DHT22;38809;53.300;6.614;2023-04-24T01:27:19;10.80;99.90
52943;DHT22;38809;53.300;6.614;2023-04-24T01:29:45;10.90;99.90
52943;DHT22;38809;53.300;6.614;2023-04-24T01:32:12;10.80;99.90
52943;DHT22;38809;53.300;6.614;2023-04-24T01:34:39;10.70;99.90
52943;DHT22;38809;53.300;6.614;2023-04-24T01:37:05;10.70;99.90
52943;DHT22;38809;53.300;6.614;2023-04-24T01:39:31;10.70;99.90
52943;DHT22;38809;53.300;6.614;2023-04-24T01:41:59;10.90;99.90
52943;DHT22;38809;53.300;6.614;2023-04-24T01:44:26;10.70;99.90
52943;DHT22;38809;53.300;6.614;2023-04-24T01:46:52;10.70;99.90
52943;DHT22;38809;53.300;6.614;2023-04-24T01:49:19;10.70;99.90
52943;DHT22;38809;53.300;6.614;2023-04-24T01:51:45;10.70;99.90
52943;DHT22;38809;53.300;6.614;2023-04-24T01:54:12;10.70;99.90
52943;DHT22;38809;53.300;6.614;2023-04-24T01:56:41;10.70;99.90
52943;DHT22;38809;53.300;6.614;2023-04-24T01:59:09;10.70;99.90
52943;DHT22;38809;53.300;6.614;2023-04-24T02:01:36;10.70;99.90
52943;DHT22;38809;53.300;6.614;2023-04-24T02:04:03;10.90;99.90
52943;DHT22;38809;53.300;6.614;2023-04-24T02:06:29;10.80;99.90
52943;DHT22;38809;53.300;6.614;2023-04-24T02:08:57;10.60;99.90
52943;DHT22;38809;53.300;6.614;2023-04-24T02:11:23;10.80;99.90
52943;DHT22;38809;53.300;6.614;2023-04-24T02:13:49;10.80;99.90
52943;DHT22;38809;53.300;6.614;2023-04-24T02:16:15;10.80;99.90
52943;DHT22;38809;53.300;6.614;2023-04-24T02:18:41;10.70;99.90
52943;DHT22;38809;53.300;6.614;2023-04-24T02:21:07;10.50;99.90
52943;DHT22;38809;53.300;6.614;2023-04-24T02:23:32;10.60;99.90
52943;DHT22;38809;53.300;6.614;2023-04-24T02:25:58;10.60;99.90
52943;DHT22;38809;53.300;6.614;2023-04-24T02:28:24;10.40;99.90
52943;DHT22;38809;53.300;6.614;2023-04-24T02:30:50;10.40;99.90
52943;DHT22;38809;53.300;6.614;2023-04-24T02:33:16;10.60;99.90
52943;DHT22;38809;53.300;6.614;2023-04-24T02:35:41;10.60;99.90
52943;DHT22;38809;53.300;6.614;2023-04-24T02:38:07;10.40;99.90
52943;DHT22;38809;53.300;6.614;2023-04-24T02:40:33;10.40;99.90
52943;DHT22;38809;53.300;6.614;2023-04-24T02:42:58;10.50;99.90
52943;DHT22;38809;53.300;6.614;2023-04-24T02:45:24;10.30;99.90
52943;DHT22;38809;53.300;6.614;2023-04-24T02:47:50;10.40;99.90
52943;DHT22;38809;53.300;6.614;2023-04-24T02:50:15;10.40;99.90
52943;DHT22;38809;53.300;6.614;2023-04-24T02:52:41;10.40;99.90
52943;DHT22;38809;53.300;6.614;2023-04-24T02:55:07;10.40;99.90
52943;DHT22;38809;53.300;6.614;2023-04-24T02:57:33;10.30;99.90
52943;DHT22;38809;53.300;6.614;2023-04-24T02:59:59;10.40;99.90
52943;DHT22;38809;53.300;6.614;2023-04-24T03:02:25;10.50;99.90
52943;DHT22;38809;53.300;6.614;2023-04-24T03:04:51;10.30;99.90
52943;DHT22;38809;53.300;6.614;2023-04-24T03:07:16;10.30;99.90
52943;DHT22;38809;53.300;6.614;2023-04-24T03:09:42;10.40;99.90
52943;DHT22;38809;53.300;6.614;2023-04-24T03:12:08;10.30;99.90
52943;DHT22;38809;53.300;6.614;2023-04-24T03:14:33;10.50;99.90
52943;DHT22;38809;53.300;6.614;2023-04-24T03:17:00;10.50;99.90
52943;DHT22;38809;53.300;6.614;2023-04-24T03:19:25;10.40;99.90
52943;DHT22;38809;53.300;6.614;2023-04-24T03:21:51;10.40;99.90
52943;DHT22;38809;53.300;6.614;2023-04-24T03:24:17;10.40;99.90
52943;DHT22;38809;53.300;6.614;2023-04-24T03:26:42;10.60;99.90
52943;DHT22;38809;53.300;6.614;2023-04-24T03:29:08;10.50;99.90
52943;DHT22;38809;53.300;6.614;2023-04-24T03:31:34;10.40;99.90
52943;DHT22;38809;53.300;6.614;2023-04-24T03:33:59;10.60;99.90
52943;DHT22;38809;53.300;6.614;2023-04-24T03:36:25;10.40;99.90
52943;DHT22;38809;53.300;6.614;2023-04-24T03:38:51;10.60;99.90
52943;DHT22;38809;53.300;6.614;2023-04-24T03:41:17;10.60;99.90
52943;DHT22;38809;53.300;6.614;2023-04-24T03:43:42;10.50;99.90
52943;DHT22;38809;53.300;6.614;2023-04-24T03:46:08;10.60;99.90
52943;DHT22;38809;53.300;6.614;2023-04-24T03:48:35;10.60;99.90
52943;DHT22;38809;53.300;6.614;2023-04-24T03:51:00;10.40;99.90
52943;DHT22;38809;53.300;6.614;2023-04-24T03:53:26;10.60;99.90
52943;DHT22;38809;53.300;6.614;2023-04-24T03:55:53;10.40;99.90
52943;DHT22;38809;53.300;6.614;2023-04-24T03:58:18;10.60;99.90
52943;DHT22;38809;53.300;6.614;2023-04-24T04:00:44;10.60;99.90
52943;DHT22;38809;53.300;6.614;2023-04-24T04:03:12;10.50;99.90
52943;DHT22;38809;53.300;6.614;2023-04-24T04:05:39;10.50;99.90
52943;DHT22;38809;53.300;6.614;2023-04-24T04:08:04;10.70;99.90
52943;DHT22;38809;53.300;6.614;2023-04-24T04:10:30;10.60;99.90
52943;DHT22;38809;53.300;6.614;2023-04-24T04:12:56;10.50;99.90
52943;DHT22;38809;53.300;6.614;2023-04-24T04:15:21;10.60;99.90
52943;DHT22;38809;53.300;6.614;2023-04-24T04:17:47;10.50;99.90
52943;DHT22;38809;53.300;6.614;2023-04-24T04:20:13;10.70;99.90
52943;DHT22;38809;53.300;6.614;2023-04-24T04:22:38;10.70;99.90
52943;DHT22;38809;53.300;6.614;2023-04-24T04:25:05;10.50;99.90
52943;DHT22;38809;53.300;6.614;2023-04-24T04:27:30;10.50;99.90
52943;DHT22;38809;53.300;6.614;2023-04-24T04:30:03;10.40;99.90
52943;DHT22;38809;53.300;6.614;2023-04-24T04:32:33;10.60;99.90
52943;DHT22;38809;53.300;6.614;2023-04-24T04:35:02;10.70;99.90
52943;DHT22;38809;53.300;6.614;2023-04-24T04:37:37;10.40;99.90
52943;DHT22;38809;53.300;6.614;2023-04-24T04:40:04;10.70;99.90
52943;DHT22;38809;53.300;6.614;2023-04-24T04:42:32;10.50;99.90
52943;DHT22;38809;53.300;6.614;2023-04-24T04:45:00;10.50;99.90
52943;DHT22;38809;53.300;6.614;2023-04-24T04:47:26;10.40;99.90
52943;DHT22;38809;53.300;6.614;2023-04-24T04:49:54;10.30;99.90
52943;DHT22;38809;53.300;6.614;2023-04-24T04:52:20;10.50;99.90
52943;DHT22;38809;53.300;6.614;2023-04-24T04:54:50;10.40;99.90
52943;DHT22;38809;53.300;6.614;2023-04-24T04:57:16;10.30;99.90
52943;DHT22;38809;53.300;6.614;2023-04-24T04:59:41;10.30;99.90
52943;DHT22;38809;53.300;6.614;2023-04-24T05:02:07;10.40;99.90
52943;DHT22;38809;53.300;6.614;2023-04-24T05:04:33;10.50;99.90
52943;DHT22;38809;53.300;6.614;2023-04-24T05:06:59;10.50;99.90
52943;DHT22;38809;53.300;6.614;2023-04-24T05:09:24;10.60;99.90
52943;DHT22;38809;53.300;6.614;2023-04-24T05:11:53;10.40;99.90
52943;DHT22;38809;53.300;6.614;2023-04-24T05:14:18;10.60;99.90
52943;DHT22;38809;53.300;6.614;2023-04-24T05:16:44;10.60;99.90
52943;DHT22;38809;53.300;6.614;2023-04-24T05:19:10;10.60;99.90
52943;DHT22;38809;53.300;6.614;2023-04-24T05:21:37;10.60;99.90
52943;DHT22;38809;53.300;6.614;2023-04-24T05:24:04;10.70;99.90
52943;DHT22;38809;53.300;6.614;2023-04-24T05:26:30;10.50;99.90
52943;DHT22;38809;53.300;6.614;2023-04-24T05:28:56;10.70;99.90
52943;DHT22;38809;53.300;6.614;2023-04-24T05:31:22;10.50;99.90
52943;DHT22;38809;53.300;6.614;2023-04-24T05:33:47;10.70;99.90
52943;DHT22;38809;53.300;6.614;2023-04-24T05:36:13;10.70;99.90
52943;DHT22;38809;53.300;6.614;2023-04-24T05:38:39;10.70;99.90
52943;DHT22;38809;53.300;6.614;2023-04-24T05:41:05;10.40;99.90
52943;DHT22;38809;53.300;6.614;2023-04-24T05:43:31;10.60;99.90
52943;DHT22;38809;53.300;6.614;2023-04-24T05:45:56;10.60;99.90
52943;DHT22;38809;53.300;6.614;2023-04-24T05:48:22;10.30;99.90
52943;DHT22;38809;53.300;6.614;2023-04-24T05:50:48;10.60;99.90
52943;DHT22;38809;53.300;6.614;2023-04-24T05:53:14;10.60;99.90
52943;DHT22;38809;53.300;6.614;2023-04-24T05:55:40;10.30;99.90
52943;DHT22;38809;53.300;6.614;2023-04-24T05:58:05;10.50;99.90
52943;DHT22;38809;53.300;6.614;2023-04-24T06:00:31;10.40;99.90
52943;DHT22;38809;53.300;6.614;2023-04-24T06:02:58;10.50;99.90
52943;DHT22;38809;53.300;6.614;2023-04-24T06:05:24;10.40;99.90
52943;DHT22;38809;53.300;6.614;2023-04-24T06:07:50;10.50;99.90
52943;DHT22;38809;53.300;6.614;2023-04-24T06:10:16;10.50;99.90
52943;DHT22;38809;53.300;6.614;2023-04-24T06:12:42;10.40;99.90
52943;DHT22;38809;53.300;6.614;2023-04-24T06:15:07;10.20;99.90
52943;DHT22;38809;53.300;6.614;2023-04-24T06:17:34;10.20;99.90
52943;DHT22;38809;53.300;6.614;2023-04-24T06:19:59;10.50;99.90
52943;DHT22;38809;53.300;6.614;2023-04-24T06:22:25;10.30;99.90
52943;DHT22;38809;53.300;6.614;2023-04-24T06:24:51;10.20;99.90
52943;DHT22;38809;53.300;6.614;2023-04-24T06:27:16;10.20;99.90
52943;DHT22;38809;53.300;6.614;2023-04-24T06:29:42;10.50;99.90
52943;DHT22;38809;53.300;6.614;2023-04-24T06:32:08;10.50;99.90
52943;DHT22;38809;53.300;6.614;2023-04-24T06:34:33;10.40;99.90
52943;DHT22;38809;53.300;6.614;2023-04-24T06:37:00;10.40;99.90
52943;DHT22;38809;53.300;6.614;2023-04-24T06:39:26;10.30;99.90
52943;DHT22;38809;53.300;6.614;2023-04-24T06:41:51;10.30;99.90
52943;DHT22;38809;53.300;6.614;2023-04-24T06:44:17;10.30;99.90
52943;DHT22;38809;53.300;6.614;2023-04-24T06:46:43;10.40;99.90
52943;DHT22;38809;53.300;6.614;2023-04-24T06:49:09;10.60;99.90
52943;DHT22;38809;53.300;6.614;2023-04-24T06:51:35;10.50;99.90
52943;DHT22;38809;53.300;6.614;2023-04-24T06:54:01;10.30;99.90
52943;DHT22;38809;53.300;6.614;2023-04-24T06:56:27;10.40;99.90
52943;DHT22;38809;53.300;6.614;2023-04-24T06:58:54;10.40;99.90
52943;DHT22;38809;53.300;6.614;2023-04-24T07:01:20;10.40;99.90
52943;DHT22;38809;53.300;6.614;2023-04-24T07:03:46;10.60;99.90
52943;DHT22;38809;53.300;6.614;2023-04-24T07:06:11;10.40;99.90
52943;DHT22;38809;53.300;6.614;2023-04-24T07:08:38;10.50;99.90
52943;DHT22;38809;53.300;6.614;2023-04-24T07:11:04;10.40;99.90
52943;DHT22;38809;53.300;6.614;2023-04-24T07:13:29;10.40;99.90
52943;DHT22;38809;53.300;6.614;2023-04-24T07:15:55;10.50;99.90
52943;DHT22;38809;53.300;6.614;2023-04-24T07:18:22;10.40;99.90
52943;DHT22;38809;53.300;6.614;2023-04-24T07:20:47;10.40;99.90
52943;DHT22;38809;53.300;6.614;2023-04-24T07:23:15;10.30;99.90
52943;DHT22;38809;53.300;6.614;2023-04-24T07:25:41;10.40;99.90
52943;DHT22;38809;53.300;6.614;2023-04-24T07:28:07;10.40;99.90
52943;DHT22;38809;53.300;6.614;2023-04-24T07:30:33;10.30;99.90
52943;DHT22;38809;53.300;6.614;2023-04-24T07:32:59;10.30;99.90
52943;DHT22;38809;53.300;6.614;2023-04-24T07:35:26;10.10;99.90
52943;DHT22;38809;53.300;6.614;2023-04-24T07:37:55;10.20;99.90
52943;DHT22;38809;53.300;6.614;2023-04-24T07:40:21;10.20;99.90
52943;DHT22;38809;53.300;6.614;2023-04-24T07:42:47;10.20;99.90
52943;DHT22;38809;53.300;6.614;2023-04-24T07:45:14;10.20;99.90
52943;DHT22;38809;53.300;6.614;2023-04-24T07:47:43;10.00;99.90
52943;DHT22;38809;53.300;6.614;2023-04-24T07:50:11;10.10;99.90
52943;DHT22;38809;53.300;6.614;2023-04-24T07:52:37;10.10;99.90
52943;DHT22;38809;53.300;6.614;2023-04-24T07:55:02;10.10;99.90
52943;DHT22;38809;53.300;6.614;2023-04-24T07:57:28;10.20;99.90
52943;DHT22;38809;53.300;6.614;2023-04-24T07:59:54;10.00;99.90
52943;DHT22;38809;53.300;6.614;2023-04-24T08:02:20;10.00;99.90
52943;DHT22;38809;53.300;6.614;2023-04-24T08:04:52;10.10;99.90
52943;DHT22;38809;53.300;6.614;2023-04-24T08:07:19;10.00;99.90
52943;DHT22;38809;53.300;6.614;2023-04-24T08:09:45;10.00;99.90
52943;DHT22;38809;53.300;6.614;2023-04-24T08:12:10;9.90;99.90
52943;DHT22;38809;53.300;6.614;2023-04-24T08:14:36;10.10;99.90
52943;DHT22;38809;53.300;6.614;2023-04-24T08:17:02;9.90;99.90
52943;DHT22;38809;53.300;6.614;2023-04-24T08:19:28;9.80;99.90
52943;DHT22;38809;53.300;6.614;2023-04-24T08:21:54;10.10;99.90
52943;DHT22;38809;53.300;6.614;2023-04-24T08:24:20;10.10;99.90
52943;DHT22;38809;53.300;6.614;2023-04-24T08:26:46;9.80;99.90
52943;DHT22;38809;53.300;6.614;2023-04-24T08:29:12;10.10;99.90
52943;DHT22;38809;53.300;6.614;2023-04-24T08:31:37;10.00;99.90
52943;DHT22;38809;53.300;6.614;2023-04-24T08:34:04;10.00;99.90
52943;DHT22;38809;53.300;6.614;2023-04-24T08:36:30;9.90;99.90
52943;DHT22;38809;53.300;6.614;2023-04-24T08:38:57;10.10;99.90
52943;DHT22;38809;53.300;6.614;2023-04-24T08:41:23;10.10;99.90
52943;DHT22;38809;53.300;6.614;2023-04-24T08:43:51;9.40;99.90
52943;DHT22;38809;53.300;6.614;2023-04-24T08:46:19;10.00;99.90
52943;DHT22;38809;53.300;6.614;2023-04-24T08:48:46;10.00;99.90
52943;DHT22;38809;53.300;6.614;2023-04-24T08:51:11;10.10;99.90
52943;DHT22;38809;53.300;6.614;2023-04-24T08:53:37;10.00;99.90
52943;DHT22;38809;53.300;6.614;2023-04-24T08:56:03;9.90;99.90
52943;DHT22;38809;53.300;6.614;2023-04-24T08:58:29;9.80;99.90
52943;DHT22;38809;53.300;6.614;2023-04-24T09:00:56;9.70;99.90
52943;DHT22;38809;53.300;6.614;2023-04-24T09:03:22;9.80;99.90
52943;DHT22;38809;53.300;6.614;2023-04-24T09:05:49;9.60;99.90
52943;DHT22;38809;53.300;6.614;2023-04-24T09:08:17;9.60;99.90
52943;DHT22;38809;53.300;6.614;2023-04-24T09:10:43;9.80;99.90
52943;DHT22;38809;53.300;6.614;2023-04-24T09:13:09;9.60;99.90
52943;DHT22;38809;53.300;6.614;2023-04-24T09:15:36;9.60;99.90
52943;DHT22;38809;53.300;6.614;2023-04-24T09:18:02;9.50;99.90
52943;DHT22;38809;53.300;6.614;2023-04-24T09:20:28;9.60;99.90
52943;DHT22;38809;53.300;6.614;2023-04-24T09:22:54;9.50;99.90
52943;DHT22;38809;53.300;6.614;2023-04-24T09:25:22;9.60;99.90
52943;DHT22;38809;53.300;6.614;2023-04-24T09:27:47;9.50;99.90
52943;DHT22;38809;53.300;6.614;2023-04-24T09:30:14;9.60;99.90
52943;DHT22;38809;53.300;6.614;2023-04-24T09:32:46;9.60;99.90
52943;DHT22;38809;53.300;6.614;2023-04-24T09:35:13;9.60;99.90
52943;DHT22;38809;53.300;6.614;2023-04-24T09:37:45;9.60;99.90
52943;DHT22;38809;53.300;6.614;2023-04-24T09:40:13;9.70;99.90
52943;DHT22;38809;53.300;6.614;2023-04-24T09:42:40;9.70;99.90
52943;DHT22;38809;53.300;6.614;2023-04-24T09:45:09;9.80;99.90
52943;DHT22;38809;53.300;6.614;2023-04-24T09:47:39;9.70;99.90
52943;DHT22;38809;53.300;6.614;2023-04-24T09:50:12;9.70;99.90
52943;DHT22;38809;53.300;6.614;2023-04-24T09:53:04;9.70;99.90
52943;DHT22;38809;53.300;6.614;2023-04-24T09:55:31;9.60;99.90
52943;DHT22;38809;53.300;6.614;2023-04-24T09:57:58;9.60;99.90
52943;DHT22;38809;53.300;6.614;2023-04-24T10:03:00;9.60;99.90
52943;DHT22;38809;53.300;6.614;2023-04-24T10:05:31;9.70;99.90
52943;DHT22;38809;53.300;6.614;2023-04-24T10:08:02;9.70;99.90
52943;DHT22;38809;53.300;6.614;2023-04-24T10:10:29;9.60;99.90
52943;DHT22;38809;53.300;6.614;2023-04-24T10:12:55;9.70;99.90
52943;DHT22;38809;53.300;6.614;2023-04-24T10:15:22;9.80;99.90
52943;DHT22;38809;53.300;6.614;2023-04-24T10:17:51;10.00;99.90
52943;DHT22;38809;53.300;6.614;2023-04-24T10:20:22;10.00;99.90
52943;DHT22;38809;53.300;6.614;2023-04-24T10:22:50;10.20;99.90
52943;DHT22;38809;53.300;6.614;2023-04-24T10:25:24;10.30;99.90
52943;DHT22;38809;53.300;6.614;2023-04-24T10:27:52;10.40;99.90
52943;DHT22;38809;53.300;6.614;2023-04-24T10:30:19;10.40;99.90
52943;DHT22;38809;53.300;6.614;2023-04-24T10:32:45;10.30;99.90
52943;DHT22;38809;53.300;6.614;2023-04-24T10:35:15;10.40;99.90
52943;DHT22;38809;53.300;6.614;2023-04-24T10:37:45;10.60;99.90
52943;DHT22;38809;53.300;6.614;2023-04-24T10:40:17;10.50;99.90
52943;DHT22;38809;53.300;6.614;2023-04-24T10:42:47;10.50;99.90
52943;DHT22;38809;53.300;6.614;2023-04-24T10:45:17;10.60;99.90
52943;DHT22;38809;53.300;6.614;2023-04-24T10:50:19;10.50;99.90
52943;DHT22;38809;53.300;6.614;2023-04-24T10:52:46;10.70;99.90
52943;DHT22;38809;53.300;6.614;2023-04-24T10:55:15;10.70;99.90
52943;DHT22;38809;53.300;6.614;2023-04-24T10:58:01;10.70;99.90
52943;DHT22;38809;53.300;6.614;2023-04-24T11:00:28;10.70;99.90
52943;DHT22;38809;53.300;6.614;2023-04-24T11:02:54;10.80;99.90
52943;DHT22;38809;53.300;6.614;2023-04-24T11:05:21;10.80;99.90
52943;DHT22;38809;53.300;6.614;2023-04-24T11:08:10;10.70;99.90
52943;DHT22;38809;53.300;6.614;2023-04-24T11:10:58;11.00;99.90
52943;DHT22;38809;53.300;6.614;2023-04-24T11:13:26;11.00;99.90
52943;DHT22;38809;53.300;6.614;2023-04-24T11:16:31;11.10;99.90
52943;DHT22;38809;53.300;6.614;2023-04-24T11:21:45;11.10;99.90
52943;DHT22;38809;53.300;6.614;2023-04-24T11:37:22;11.40;99.90
52943;DHT22;38809;53.300;6.614;2023-04-24T11:39:56;11.50;99.90
52943;DHT22;38809;53.300;6.614;2023-04-24T11:42:22;12.00;99.90
52943;DHT22;38809;53.300;6.614;2023-04-24T11:44:49;11.40;99.90
52943;DHT22;38809;53.300;6.614;2023-04-24T11:47:15;11.20;99.90
52943;DHT22;38809;53.300;6.614;2023-04-24T11:49:41;11.10;99.90
52943;DHT22;38809;53.300;6.614;2023-04-24T11:52:07;11.00;99.90
52943;DHT22;38809;53.300;6.614;2023-04-24T11:54:33;10.80;99.90
52943;DHT22;38809;53.300;6.614;2023-04-24T11:56:59;10.60;99.90
52943;DHT22;38809;53.300;6.614;2023-04-24T11:59:25;10.60;99.90
52943;DHT22;38809;53.300;6.614;2023-04-24T12:01:50;10.60;99.90
52943;DHT22;38809;53.300;6.614;2023-04-24T12:04:17;10.50;99.90
52943;DHT22;38809;53.300;6.614;2023-04-24T12:07:02;10.40;99.90
52943;DHT22;38809;53.300;6.614;2023-04-24T12:09:29;10.30;99.90
52943;DHT22;38809;53.300;6.614;2023-04-24T12:11:56;10.30;99.90
52943;DHT22;38809;53.300;6.614;2023-04-24T12:14:24;10.20;99.90
52943;DHT22;38809;53.300;6.614;2023-04-24T12:16:50;10.10;99.90
52943;DHT22;38809;53.300;6.614;2023-04-24T12:19:23;10.10;99.90
52943;DHT22;38809;53.300;6.614;2023-04-24T12:22:03;10.00;99.90
52943;DHT22;38809;53.300;6.614;2023-04-24T12:24:30;10.00;99.90
52943;DHT22;38809;53.300;6.614;2023-04-24T12:26:56;9.90;99.90
52943;DHT22;38809;53.300;6.614;2023-04-24T12:29:23;9.90;99.90
52943;DHT22;38809;53.300;6.614;2023-04-24T12:31:51;9.90;99.90
52943;DHT22;38809;53.300;6.614;2023-04-24T12:34:21;9.90;99.90
52943;DHT22;38809;53.300;6.614;2023-04-24T12:36:47;10.00;99.90
52943;DHT22;38809;53.300;6.614;2023-04-24T12:39:17;10.00;99.90
52943;DHT22;38809;53.300;6.614;2023-04-24T12:41:56;10.20;99.90
52943;DHT22;38809;53.300;6.614;2023-04-24T12:44:32;10.40;99.90
52943;DHT22;38809;53.300;6.614;2023-04-24T12:47:00;10.40;99.90
52943;DHT22;38809;53.300;6.614;2023-04-24T12:49:26;10.40;99.90
52943;DHT22;38809;53.300;6.614;2023-04-24T12:51:52;10.40;99.90
52943;DHT22;38809;53.300;6.614;2023-04-24T12:54:18;10.30;99.90
52943;DHT22;38809;53.300;6.614;2023-04-24T12:56:44;10.40;99.90
52943;DHT22;38809;53.300;6.614;2023-04-24T12:59:09;10.50;99.90
52943;DHT22;38809;53.300;6.614;2023-04-24T13:01:35;10.40;99.90
52943;DHT22;38809;53.300;6.614;2023-04-24T13:04:01;10.40;99.90
52943;DHT22;38809;53.300;6.614;2023-04-24T13:06:26;10.40;99.90
52943;DHT22;38809;53.300;6.614;2023-04-24T13:08:52;10.40;99.90
52943;DHT22;38809;53.300;6.614;2023-04-24T13:11:20;10.40;99.90
52943;DHT22;38809;53.300;6.614;2023-04-24T13:13:47;10.30;99.90
52943;DHT22;38809;53.300;6.614;2023-04-24T13:16:13;10.30;99.90
52943;DHT22;38809;53.300;6.614;2023-04-24T13:18:38;10.20;99.90
52943;DHT22;38809;53.300;6.614;2023-04-24T13:21:04;10.10;99.90
52943;DHT22;38809;53.300;6.614;2023-04-24T13:23:30;10.10;99.90
52943;DHT22;38809;53.300;6.614;2023-04-24T13:25:56;10.10;99.90
52943;DHT22;38809;53.300;6.614;2023-04-24T13:28:24;10.00;99.90
52943;DHT22;38809;53.300;6.614;2023-04-24T13:30:50;9.90;99.90
52943;DHT22;38809;53.300;6.614;2023-04-24T13:33:16;9.90;99.90
52943;DHT22;38809;53.300;6.614;2023-04-24T13:35:42;9.90;99.90
52943;DHT22;38809;53.300;6.614;2023-04-24T13:38:08;9.90;99.90
52943;DHT22;38809;53.300;6.614;2023-04-24T13:40:34;9.90;99.90
52943;DHT22;38809;53.300;6.614;2023-04-24T13:42:59;10.00;99.90
52943;DHT22;38809;53.300;6.614;2023-04-24T13:45:26;10.20;99.90
52943;DHT22;38809;53.300;6.614;2023-04-24T13:47:52;10.20;99.90
52943;DHT22;38809;53.300;6.614;2023-04-24T13:50:19;10.40;99.90
52943;DHT22;38809;53.300;6.614;2023-04-24T13:52:45;10.50;99.90
52943;DHT22;38809;53.300;6.614;2023-04-24T13:55:11;10.60;99.90
52943;DHT22;38809;53.300;6.614;2023-04-24T13:57:37;10.60;99.90
52943;DHT22;38809;53.300;6.614;2023-04-24T14:00:03;10.50;99.90
52943;DHT22;38809;53.300;6.614;2023-04-24T14:02:29;10.40;99.90
52943;DHT22;38809;53.300;6.614;2023-04-24T14:04:55;10.20;99.90
52943;DHT22;38809;53.300;6.614;2023-04-24T14:07:21;10.10;99.90
52943;DHT22;38809;53.300;6.614;2023-04-24T14:09:47;9.90;99.90
52943;DHT22;38809;53.300;6.614;2023-04-24T14:12:13;9.90;99.90
52943;DHT22;38809;53.300;6.614;2023-04-24T14:14:39;9.70;99.90
52943;DHT22;38809;53.300;6.614;2023-04-24T14:17:05;9.60;99.90
52943;DHT22;38809;53.300;6.614;2023-04-24T14:19:31;9.40;99.90
52943;DHT22;38809;53.300;6.614;2023-04-24T14:21:57;9.70;99.90
52943;DHT22;38809;53.300;6.614;2023-04-24T14:24:23;9.80;99.90
52943;DHT22;38809;53.300;6.614;2023-04-24T14:26:49;9.90;99.90
52943;DHT22;38809;53.300;6.614;2023-04-24T14:29:15;9.80;99.90
52943;DHT22;38809;53.300;6.614;2023-04-24T14:31:42;9.80;99.90
52943;DHT22;38809;53.300;6.614;2023-04-24T14:34:08;9.70;99.90
52943;DHT22;38809;53.300;6.614;2023-04-24T14:36:34;9.60;99.90
52943;DHT22;38809;53.300;6.614;2023-04-24T14:39:00;9.70;99.90
52943;DHT22;38809;53.300;6.614;2023-04-24T14:41:30;9.40;99.90
52943;DHT22;38809;53.300;6.614;2023-04-24T14:43:56;9.50;99.90
52943;DHT22;38809;53.300;6.614;2023-04-24T14:46:22;9.40;99.90
52943;DHT22;38809;53.300;6.614;2023-04-24T14:48:48;9.50;99.90
52943;DHT22;38809;53.300;6.614;2023-04-24T14:51:14;9.60;99.90
52943;DHT22;38809;53.300;6.614;2023-04-24T14:53:39;9.40;99.90
52943;DHT22;38809;53.300;6.614;2023-04-24T14:56:05;9.40;99.90
52943;DHT22;38809;53.300;6.614;2023-04-24T14:58:31;9.30;99.90
52943;DHT22;38809;53.300;6.614;2023-04-24T15:00:57;9.30;99.90
52943;DHT22;38809;53.300;6.614;2023-04-24T15:03:22;9.30;99.90
52943;DHT22;38809;53.300;6.614;2023-04-24T15:05:49;9.30;99.90
52943;DHT22;38809;53.300;6.614;2023-04-24T15:08:15;9.30;99.90
52943;DHT22;38809;53.300;6.614;2023-04-24T15:10:41;9.20;99.90
52943;DHT22;38809;53.300;6.614;2023-04-24T15:13:07;9.50;99.90
52943;DHT22;38809;53.300;6.614;2023-04-24T15:15:33;9.30;99.90
52943;DHT22;38809;53.300;6.614;2023-04-24T15:17:58;9.30;99.90
52943;DHT22;38809;53.300;6.614;2023-04-24T15:20:24;9.30;99.90
52943;DHT22;38809;53.300;6.614;2023-04-24T15:22:50;9.30;99.90
52943;DHT22;38809;53.300;6.614;2023-04-24T15:25:15;9.10;99.90
52943;DHT22;38809;53.300;6.614;2023-04-24T15:27:42;9.30;99.90
52943;DHT22;38809;53.300;6.614;2023-04-24T15:30:09;9.30;99.90
52943;DHT22;38809;53.300;6.614;2023-04-24T15:32:36;9.30;99.90
52943;DHT22;38809;53.300;6.614;2023-04-24T15:35:02;9.40;99.90
52943;DHT22;38809;53.300;6.614;2023-04-24T15:37:27;9.50;99.90
52943;DHT22;38809;53.300;6.614;2023-04-24T15:39:53;9.60;99.90
52943;DHT22;38809;53.300;6.614;2023-04-24T15:42:19;9.40;99.90
52943;DHT22;38809;53.300;6.614;2023-04-24T15:44:44;9.40;99.90
52943;DHT22;38809;53.300;6.614;2023-04-24T15:47:10;9.80;99.90
52943;DHT22;38809;53.300;6.614;2023-04-24T15:49:38;9.60;99.90
52943;DHT22;38809;53.300;6.614;2023-04-24T15:52:04;9.70;99.90
52943;DHT22;38809;53.300;6.614;2023-04-24T15:54:30;9.60;99.90